Time;durP1;ratioP1;P1;durP2;ratioP2;P2;SDS_P1;SDS_P2;PMS_P1;PMS_P2;Temp;Humidity;BMP_temperature;BMP_pressure;BME280_temperature;BME280_humidity;BME280_pressure;Samples;Min_cycle;Max_cycle;Signal;HPM_P1;HPM_P2
2021/08/14 00:01:39;;;;;;;9.30;6.65;;;;;;;18.92;56.02;100124.86;1749104;80;21129;-42
2021/08/14 00:04:06;;;;;;;7.72;5.83;;;;;;;18.90;56.25;100121.72;1773961;80;21033;-42
2021/08/14 00:06:32;;;;;;;9.18;5.62;;;;;;;18.88;56.39;100124.85;1774484;79;20910;-42
2021/08/14 00:09:01;;;;;;;9.10;6.65;;;;;;;18.86;56.04;100127.81;1755590;80;21480;-42
2021/08/14 00:11:27;;;;;;;10.43;7.03;;;;;;;18.82;55.89;100132.54;1749955;80;21586;-42
2021/08/14 00:13:54;;;;;;;11.03;6.90;;;;;;;18.75;55.75;100135.28;1770755;80;21864;-42
2021/08/14 00:16:20;;;;;;;11.05;7.75;;;;;;;18.69;55.96;100132.16;1767861;80;20969;-42
2021/08/14 00:18:47;;;;;;;9.65;7.17;;;;;;;18.64;56.05;100133.92;1773930;80;21550;-41
2021/08/14 00:21:14;;;;;;;13.98;8.40;;;;;;;18.60;56.25;100129.82;1694795;83;21009;-42
2021/08/14 00:23:42;;;;;;;11.40;8.33;;;;;;;18.59;56.44;100132.36;1691921;83;21582;-42
2021/08/14 00:26:08;;;;;;;12.80;7.85;;;;;;;18.57;56.59;100134.73;1687526;83;21969;-42
2021/08/14 00:28:37;;;;;;;10.72;7.78;;;;;;;18.55;56.66;100134.34;1754987;80;20989;-42
2021/08/14 00:31:04;;;;;;;13.55;8.03;;;;;;;18.50;56.73;100137.45;1742418;80;21760;-42
2021/08/14 00:33:30;;;;;;;13.22;8.78;;;;;;;18.49;56.77;100149.60;1752974;80;21060;-42
2021/08/14 00:35:57;;;;;;;13.28;8.65;;;;;;;18.47;56.88;100142.37;1765731;80;21006;-41
2021/08/14 00:38:25;;;;;;;13.98;9.08;;;;;;;18.48;57.07;100148.06;1753114;80;21524;-41
2021/08/14 00:40:51;;;;;;;16.77;9.08;;;;;;;18.47;57.19;100153.34;1778483;80;21385;-41
2021/08/14 00:43:18;;;;;;;12.93;8.98;;;;;;;18.47;57.20;100147.86;1751122;82;20937;-41
2021/08/14 00:45:46;;;;;;;14.28;9.08;;;;;;;18.43;57.36;100137.47;1751201;82;21017;-41
2021/08/14 00:48:13;;;;;;;12.80;9.05;;;;;;;18.40;57.53;100139.61;1751984;80;21037;-42
2021/08/14 00:50:39;;;;;;;11.08;7.80;;;;;;;18.40;57.84;100131.38;1757105;80;21117;-42
2021/08/14 00:53:06;;;;;;;11.40;7.45;;;;;;;18.39;57.75;100140.02;1697134;83;20975;-42
2021/08/14 00:55:33;;;;;;;10.85;7.62;;;;;;;18.37;57.57;100140.41;1680601;84;21076;-41
2021/08/14 00:58:01;;;;;;;11.95;6.90;;;;;;;18.38;57.55;100142.56;1682631;83;21204;-42
2021/08/14 01:00:27;;;;;;;10.45;7.58;;;;;;;18.37;57.68;100147.27;1693176;84;21044;-41
2021/08/14 01:02:57;;;;;;;8.00;6.65;;;;;;;18.36;58.07;100143.53;1678998;85;21187;-42
2021/08/14 01:05:25;;;;;;;12.37;6.85;;;;;;;18.33;58.18;100145.12;1678831;85;21016;-41
2021/08/14 01:07:52;;;;;;;14.45;7.28;;;;;;;18.27;58.06;100148.05;1686930;84;21045;-41
2021/08/14 01:10:19;;;;;;;11.25;7.70;;;;;;;18.22;57.97;100149.81;1685702;84;21696;-42
2021/08/14 01:12:49;;;;;;;10.70;7.25;;;;;;;18.19;57.98;100145.11;1706924;84;21064;-41
2021/08/14 01:15:16;;;;;;;10.98;7.17;;;;;;;18.19;57.99;100145.11;1701265;83;21172;-41
2021/08/14 01:17:44;;;;;;;11.25;6.62;;;;;;;18.17;57.88;100143.34;1723232;80;21524;-42
2021/08/14 01:20:14;;;;;;;10.25;7.12;;;;;;;18.14;57.90;100147.66;1766976;80;21034;-42
2021/08/14 01:22:42;;;;;;;11.03;7.03;;;;;;;18.14;58.04;100156.48;1759534;80;21001;-41
2021/08/14 01:25:10;;;;;;;10.55;7.28;;;;;;;18.13;58.39;100157.65;1762607;80;21013;-42
2021/08/14 01:27:38;;;;;;;9.93;7.25;;;;;;;18.10;58.88;100158.44;1753034;80;22095;-41
2021/08/14 01:30:08;;;;;;;;;;;;;;;18.08;58.43;100162.94;1755876;80;21052;-41
2021/08/14 01:32:35;;;;;;;13.32;7.58;;;;;;;18.05;58.25;100161.57;1759491;80;20124;-42
2021/08/14 01:35:03;;;;;;;14.60;7.58;;;;;;;17.92;58.48;100165.25;1756744;80;21492;-41
2021/08/14 01:37:31;;;;;;;11.05;8.18;;;;;;;17.91;58.43;100165.05;1742960;82;21057;-42
2021/08/14 01:39:59;;;;;;;11.05;8.70;;;;;;;17.91;58.36;100165.05;1742935;80;21118;-42
2021/08/14 01:42:26;;;;;;;12.05;8.58;;;;;;;17.90;58.33;100162.72;1742726;82;21002;-41
2021/08/14 01:44:53;;;;;;;12.28;8.15;;;;;;;17.90;58.39;100166.83;1745303;80;20953;-41
2021/08/14 01:47:20;;;;;;;12.93;8.60;;;;;;;17.88;58.53;100165.05;1756108;80;21077;-41
2021/08/14 01:49:47;;;;;;;12.63;8.98;;;;;;;17.86;58.57;100165.45;1728736;80;20986;-41
2021/08/14 01:52:16;;;;;;;13.68;8.75;;;;;;;17.86;58.66;100166.05;1760795;80;21137;-41
2021/08/14 01:54:47;;;;;;;12.98;8.55;;;;;;;17.87;58.65;100167.59;1767058;80;20927;-41
2021/08/14 01:57:16;;;;;;;13.13;8.13;;;;;;;17.85;58.63;100167.21;1743234;81;20974;-41
2021/08/14 01:59:42;;;;;;;12.10;8.35;;;;;;;17.84;58.68;100162.89;1748741;80;21031;-41
2021/08/14 02:02:08;;;;;;;11.00;8.43;;;;;;;17.81;58.77;100162.48;1762645;80;20986;-41
2021/08/14 02:04:35;;;;;;;10.30;8.35;;;;;;;17.80;59.06;100162.31;1751976;80;21116;-41
2021/08/14 02:07:03;;;;;;;12.55;8.30;;;;;;;17.83;59.11;100159.94;1750255;80;21065;-41
2021/08/14 02:09:32;;;;;;;10.03;7.87;;;;;;;17.87;59.03;100164.84;1770311;80;20985;-41
2021/08/14 02:11:59;;;;;;;10.48;7.78;;;;;;;17.92;58.95;100162.52;1743392;81;21469;-41
2021/08/14 02:14:26;;;;;;;13.05;8.05;;;;;;;17.94;58.89;100163.50;1743158;82;21037;-41
2021/08/14 02:16:54;;;;;;;11.50;8.03;;;;;;;17.94;58.78;100159.39;1734173;80;20942;-40
2021/08/14 02:19:22;;;;;;;12.58;8.63;;;;;;;17.92;58.61;100155.66;1753061;80;21518;-41
2021/08/14 02:21:49;;;;;;;12.95;8.18;;;;;;;17.93;58.64;100157.81;1761308;80;20996;-41
2021/08/14 02:24:16;;;;;;;11.28;8.60;;;;;;;17.94;58.67;100162.13;1778182;80;21124;-41
2021/08/14 02:26:44;;;;;;;12.58;8.70;;;;;;;17.94;58.82;100159.39;1757923;80;21540;-41
2021/08/14 02:29:11;;;;;;;13.80;8.50;;;;;;;17.92;59.11;100159.77;1764066;80;21105;-41
2021/08/14 02:31:37;;;;;;;10.63;7.83;;;;;;;17.91;59.18;100160.17;1775482;80;20991;-41
2021/08/14 02:34:04;;;;;;;10.75;7.83;;;;;;;17.87;59.24;100157.98;1748395;80;21464;-41
2021/08/14 02:36:33;;;;;;;11.25;7.95;;;;;;;17.83;59.35;100155.83;1746351;80;20980;-41
2021/08/14 02:39:01;;;;;;;13.22;8.70;;;;;;;17.78;59.38;100163.27;1749392;80;21021;-41
2021/08/14 02:41:27;;;;;;;12.35;8.03;;;;;;;17.75;59.70;100159.16;1745643;80;21143;-40
2021/08/14 02:43:55;;;;;;;12.33;8.28;;;;;;;17.72;59.96;100164.03;1744070;80;21818;-41
2021/08/14 02:46:22;;;;;;;10.10;7.53;;;;;;;17.68;60.26;100164.02;1745703;80;20938;-41
2021/08/14 02:48:50;;;;;;;9.98;7.87;;;;;;;17.66;60.35;100159.53;1743258;81;21029;-41
2021/08/14 02:51:16;;;;;;;10.32;7.92;;;;;;;17.67;60.60;100162.45;1761086;80;21514;-41
2021/08/14 02:53:43;;;;;;;11.73;8.55;;;;;;;17.72;60.64;100164.03;1740386;82;21263;-41
2021/08/14 02:56:09;;;;;;;12.95;8.50;;;;;;;17.77;60.52;100166.39;1693474;83;21047;-41
2021/08/14 02:58:36;;;;;;;14.50;8.73;;;;;;;17.79;60.17;100158.57;1697679;83;21018;-41
2021/08/14 03:01:02;;;;;;;11.85;8.40;;;;;;;17.80;59.70;100167.01;1713657;83;21002;-41
2021/08/14 03:03:29;;;;;;;10.10;8.10;;;;;;;17.83;59.71;100158.57;1703782;83;21037;-41
2021/08/14 03:05:57;;;;;;;12.10;8.28;;;;;;;17.85;59.92;100160.36;1710276;83;21173;-41
2021/08/14 03:08:25;;;;;;;13.40;8.90;;;;;;;17.85;59.97;100154.28;1719325;82;21005;-41
2021/08/14 03:10:51;;;;;;;12.23;8.95;;;;;;;17.86;59.96;100156.45;1700403;82;21558;-41
2021/08/14 03:13:18;;;;;;;10.40;7.95;;;;;;;17.84;59.24;100153.29;1674150;85;21038;-41
2021/08/14 03:15:44;;;;;;;13.10;8.38;;;;;;;17.81;58.91;100154.25;1696150;83;21053;-41
2021/08/14 03:18:12;;;;;;;12.50;7.53;;;;;;;17.80;58.79;100149.97;1687493;83;21161;-41
2021/08/14 03:20:40;;;;;;;10.28;7.75;;;;;;;17.78;58.73;100148.19;1693748;83;21001;-41
2021/08/14 03:23:07;;;;;;;13.90;7.40;;;;;;;17.76;58.81;100148.39;1703485;83;21053;-41
2021/08/14 03:25:35;;;;;;;10.03;7.30;;;;;;;17.74;58.72;100147.98;1692616;83;21218;-41
2021/08/14 03:28:03;;;;;;;11.78;8.08;;;;;;;17.72;58.75;100149.73;1695904;83;20987;-41
2021/08/14 03:30:30;;;;;;;10.82;8.00;;;;;;;17.71;58.74;100152.30;1711575;83;21123;-41
2021/08/14 03:32:57;;;;;;;12.47;7.65;;;;;;;17.71;58.79;100155.04;1703084;83;21030;-41
2021/08/14 03:35:24;;;;;;;10.55;8.10;;;;;;;17.70;58.89;100150.72;1712298;82;20978;-40
2021/08/14 03:37:50;;;;;;;11.63;7.95;;;;;;;17.70;58.92;100149.35;1719785;83;21029;-41
2021/08/14 03:40:17;;;;;;;12.37;8.28;;;;;;;17.71;58.93;100158.37;1718904;83;21045;-41
2021/08/14 03:42:44;;;;;;;11.22;8.05;;;;;;;17.71;59.00;100152.30;1684289;83;21840;-41
2021/08/14 03:45:10;;;;;;;12.03;8.48;;;;;;;17.72;59.13;100155.80;1695840;83;21617;-41
2021/08/14 03:47:37;;;;;;;10.58;8.55;;;;;;;17.74;59.24;100156.20;1684624;83;21097;-41
2021/08/14 03:50:09;;;;;;;11.35;8.45;;;;;;;17.74;59.17;100157.00;1713245;83;21065;-41
2021/08/14 03:52:35;;;;;;;13.00;8.00;;;;;;;17.74;59.23;100153.47;1708748;83;21130;-41
2021/08/14 03:55:06;;;;;;;11.88;8.15;;;;;;;17.74;59.24;100151.51;1702178;83;21939;-41
2021/08/14 03:57:33;;;;;;;12.30;7.75;;;;;;;17.75;59.21;100150.34;1716351;83;20990;-41
2021/08/14 04:00:00;;;;;;;11.40;7.50;;;;;;;17.79;59.21;100150.34;1707232;84;21025;-41
2021/08/14 04:02:26;;;;;;;10.88;7.92;;;;;;;17.82;59.31;100141.33;1723399;83;21517;-41
2021/08/14 04:04:53;;;;;;;14.98;7.75;;;;;;;17.86;59.06;100152.33;1714041;82;21049;-41
2021/08/14 04:07:19;;;;;;;9.43;7.85;;;;;;;17.88;58.84;100150.75;1710074;83;21138;-41
2021/08/14 04:09:46;;;;;;;11.08;7.97;;;;;;;17.93;58.73;100159.19;1715103;83;20981;-41
2021/08/14 04:12:14;;;;;;;10.08;7.80;;;;;;;17.95;58.51;100152.73;1694150;82;21565;-41
2021/08/14 04:14:41;;;;;;;11.43;7.53;;;;;;;17.98;58.54;100154.69;1725929;80;21076;-41
2021/08/14 04:17:08;;;;;;;8.60;7.08;;;;;;;18.01;58.56;100156.05;1776103;80;20973;-41
2021/08/14 04:19:35;;;;;;;11.45;7.12;;;;;;;18.03;58.36;100168.02;1751297;82;21136;-41
2021/08/14 04:22:04;;;;;;;11.57;7.45;;;;;;;18.06;58.48;100158.41;1757406;80;20969;-41
2021/08/14 04:24:30;;;;;;;8.53;6.85;;;;;;;18.05;58.55;100161.57;1753808;80;21045;-41
2021/08/14 04:26:57;;;;;;;8.53;6.97;;;;;;;18.06;58.66;100159.78;1751530;80;21025;-41
2021/08/14 04:29:24;;;;;;;11.30;7.35;;;;;;;18.10;58.59;100165.30;1739334;80;20998;-41
2021/08/14 04:31:51;;;;;;;9.63;6.67;;;;;;;18.11;58.44;100166.27;1715616;83;21160;-41
2021/08/14 04:34:18;;;;;;;9.20;6.55;;;;;;;18.12;58.37;100165.09;1750990;80;21325;-41
2021/08/14 04:36:45;;;;;;;9.63;6.87;;;;;;;18.16;58.09;100165.09;1756162;80;21072;-41
2021/08/14 04:39:13;;;;;;;11.43;7.10;;;;;;;18.18;58.16;100164.12;1746595;82;21049;-41
2021/08/14 04:41:39;;;;;;;9.40;7.00;;;;;;;18.18;58.20;100169.03;1784699;80;21015;-41
2021/08/14 04:44:06;;;;;;;8.55;6.92;;;;;;;18.17;58.29;100162.55;1770973;80;21076;-41
2021/08/14 04:46:33;;;;;;;8.63;6.55;;;;;;;18.20;58.55;100165.29;1779459;80;21115;-41
2021/08/14 04:49:01;;;;;;;9.03;6.25;;;;;;;18.28;58.60;100161.19;1751921;80;21009;-41
2021/08/14 04:51:28;;;;;;;6.78;5.45;;;;;;;18.41;58.41;100163.15;1769448;80;21026;-41
2021/08/14 04:53:55;;;;;;;7.92;5.62;;;;;;;18.56;58.14;100164.75;1762677;80;21036;-41
2021/08/14 04:56:23;;;;;;;9.98;5.85;;;;;;;18.66;57.95;100162.58;1766473;80;21957;-41
2021/08/14 04:58:49;;;;;;;7.97;5.47;;;;;;;18.77;57.68;100162.57;1765472;80;21020;-41
2021/08/14 05:01:16;;;;;;;10.15;6.20;;;;;;;18.87;57.50;100169.23;1776394;80;21104;-41
2021/08/14 05:03:42;;;;;;;9.55;6.20;;;;;;;18.96;57.36;100165.47;1748507;80;21064;-41
2021/08/14 05:06:09;;;;;;;13.95;5.75;;;;;;;19.05;57.14;100168.00;1726419;83;21643;-41
2021/08/14 05:08:36;;;;;;;10.63;5.72;;;;;;;19.16;57.14;100165.23;1734300;81;21121;-41
2021/08/14 05:11:04;;;;;;;8.35;5.90;;;;;;;19.24;56.81;100171.48;1764770;80;20972;-41
2021/08/14 05:13:31;;;;;;;8.33;5.47;;;;;;;19.29;57.11;100177.94;1783997;80;21561;-41
2021/08/14 05:15:58;;;;;;;8.15;5.37;;;;;;;19.33;57.37;100178.12;1788200;80;20981;-41
2021/08/14 05:18:24;;;;;;;9.78;5.65;;;;;;;19.42;57.58;100173.56;1756967;80;21056;-41
2021/08/14 05:20:53;;;;;;;6.50;5.53;;;;;;;19.52;57.29;100181.02;1713895;83;22132;-41
2021/08/14 05:23:19;;;;;;;7.97;5.03;;;;;;;19.61;57.63;100179.20;1720210;83;20957;-41
2021/08/14 05:25:47;;;;;;;8.55;5.37;;;;;;;19.72;57.45;100177.19;1692559;84;21041;-41
2021/08/14 05:28:14;;;;;;;7.87;4.75;;;;;;;19.78;57.10;100172.25;1702510;84;21507;-41
2021/08/14 05:30:41;;;;;;;8.33;5.20;;;;;;;19.85;57.02;100173.58;1699097;83;22061;-41
2021/08/14 05:33:08;;;;;;;7.80;5.47;;;;;;;19.95;56.92;100182.95;1694764;82;21193;-41
2021/08/14 05:35:35;;;;;;;7.20;5.35;;;;;;;20.03;56.64;100178.98;1688059;83;20987;-41
2021/08/14 05:38:02;;;;;;;8.03;5.87;;;;;;;20.11;56.86;100178.34;1719457;83;21515;-41
2021/08/14 05:40:31;;;;;;;6.70;5.35;;;;;;;20.20;57.08;100175.31;1720405;83;20992;-41
2021/08/14 05:42:58;;;;;;;8.60;5.47;;;;;;;20.30;56.43;100176.42;1692356;83;21569;-41
2021/08/14 05:45:25;;;;;;;8.18;5.12;;;;;;;20.38;56.31;100171.86;1685104;82;21180;-41
2021/08/14 05:47:52;;;;;;;6.00;5.15;;;;;;;20.48;56.27;100176.34;1699108;82;20938;-41
2021/08/14 05:50:18;;;;;;;8.28;4.75;;;;;;;20.56;56.62;100170.94;1700595;84;21069;-41
2021/08/14 05:52:45;;;;;;;8.70;5.30;;;;;;;20.65;57.13;100169.88;1701364;84;21061;-41
2021/08/14 05:55:11;;;;;;;7.85;5.78;;;;;;;20.78;57.68;100173.09;1721032;83;21578;-41
2021/08/14 05:57:39;;;;;;;8.75;5.87;;;;;;;20.89;57.50;100179.87;1712702;83;21109;-41
2021/08/14 06:00:08;;;;;;;8.85;5.08;;;;;;;20.97;57.95;100179.98;1678889;84;21034;-41
2021/08/14 06:02:34;;;;;;;8.05;5.20;;;;;;;21.11;57.76;100181.20;1679246;85;21100;-41
2021/08/14 06:05:01;;;;;;;11.95;6.15;;;;;;;21.27;57.56;100181.27;1713653;83;21089;-41
2021/08/14 06:07:28;;;;;;;8.45;5.03;;;;;;;21.44;57.47;100175.56;1679080;85;21550;-41
2021/08/14 06:09:54;;;;;;;12.88;5.62;;;;;;;21.55;57.27;100178.16;1738811;80;21766;-41
2021/08/14 06:12:21;;;;;;;7.12;5.05;;;;;;;21.69;57.25;100181.52;1730886;80;21017;-41
2021/08/14 06:14:48;;;;;;;7.58;5.25;;;;;;;21.82;56.51;100177.62;1728809;80;20990;-41
2021/08/14 06:17:14;;;;;;;9.08;5.70;;;;;;;21.93;55.93;100171.36;1743511;82;20977;-41
2021/08/14 06:19:41;;;;;;;7.35;5.50;;;;;;;22.07;55.76;100169.77;1744242;80;21096;-41
2021/08/14 06:22:09;;;;;;;8.98;5.85;;;;;;;22.21;55.31;100179.05;1743293;80;21078;-41
2021/08/14 06:24:36;;;;;;;5.55;4.37;;;;;;;22.33;54.96;100175.69;1746304;80;21796;-41
2021/08/14 06:27:04;;;;;;;6.17;4.72;;;;;;;22.42;54.19;100169.81;1716379;80;21001;-41
2021/08/14 06:29:30;;;;;;;6.53;4.37;;;;;;;22.53;54.08;100169.64;1699872;84;21507;-41
2021/08/14 06:31:57;;;;;;;5.97;4.40;;;;;;;22.64;53.31;100173.01;1771516;80;21041;-41
2021/08/14 06:34:24;;;;;;;6.15;4.22;;;;;;;22.73;53.12;100169.13;1758759;81;21129;-41
2021/08/14 06:36:50;;;;;;;6.60;4.33;;;;;;;22.82;51.57;100168.57;1743159;82;21557;-41
2021/08/14 06:39:18;;;;;;;9.68;4.03;;;;;;;22.89;51.29;100165.09;1756778;80;21053;-42
2021/08/14 06:41:44;;;;;;;6.30;4.53;;;;;;;22.98;50.49;100154.84;1737334;80;21083;-42
2021/08/14 06:44:11;;;;;;;4.95;3.67;;;;;;;23.08;49.96;100160.00;1752438;80;21065;-42
2021/08/14 06:46:38;;;;;;;6.83;4.67;;;;;;;23.15;49.10;100158.46;1752041;80;21483;-42
2021/08/14 06:49:05;;;;;;;7.17;4.22;;;;;;;23.25;48.14;100162.41;1727925;80;21000;-42
2021/08/14 06:51:32;;;;;;;3.55;2.87;;;;;;;23.35;46.91;100160.62;1714553;80;20950;-42
2021/08/14 06:53:59;;;;;;;2.60;2.20;;;;;;;23.45;45.86;100164.41;1756096;81;21021;-42
2021/08/14 06:56:28;;;;;;;2.92;2.60;;;;;;;23.54;45.52;100163.23;1727556;82;20921;-42
2021/08/14 06:58:54;;;;;;;5.72;2.83;;;;;;;23.63;45.32;100161.44;1703851;84;21137;-42
2021/08/14 07:01:21;;;;;;;3.72;2.47;;;;;;;23.74;45.54;100168.14;1703816;84;20933;-42
2021/08/14 07:03:49;;;;;;;2.95;2.25;;;;;;;23.84;45.00;100162.97;1692846;84;21091;-42
2021/08/14 07:06:20;;;;;;;2.62;2.30;;;;;;;23.95;44.34;100163.52;1692385;84;20993;-42
2021/08/14 07:08:47;;;;;;;3.52;2.10;;;;;;;24.08;43.42;100160.83;1702509;84;21117;-42
2021/08/14 07:11:16;;;;;;;4.08;2.62;;;;;;;24.19;43.15;100158.63;1696984;84;21018;-42
2021/08/14 07:13:43;;;;;;;2.60;2.40;;;;;;;24.34;42.22;100162.63;1702379;84;21493;-42
2021/08/14 07:16:09;;;;;;;3.58;2.50;;;;;;;24.46;41.38;100155.58;1727195;82;21080;-42
2021/08/14 07:18:38;;;;;;;2.95;2.45;;;;;;;24.56;41.20;100153.93;1674107;85;20950;-42
2021/08/14 07:21:04;;;;;;;3.60;2.50;;;;;;;24.72;41.36;100160.67;1674436;85;21555;-42
2021/08/14 07:23:31;;;;;;;3.83;2.67;;;;;;;24.83;40.70;100154.24;1674141;85;21944;-42
2021/08/14 07:25:58;;;;;;;4.15;2.40;;;;;;;24.94;40.23;100149.20;1677611;84;20971;-42
2021/08/14 07:28:25;;;;;;;3.42;2.47;;;;;;;25.05;39.50;100145.53;1736095;82;20999;-42
2021/08/14 07:30:52;;;;;;;5.83;2.47;;;;;;;25.16;39.50;100139.08;1717257;83;21020;-42
2021/08/14 07:33:18;;;;;;;3.27;2.20;;;;;;;25.27;38.21;100137.39;1712439;83;21510;-42
2021/08/14 07:35:45;;;;;;;4.40;2.30;;;;;;;25.33;37.57;100136.39;1687494;84;21186;-42
2021/08/14 07:38:14;;;;;;;3.62;2.30;;;;;;;25.38;37.57;100127.52;1694893;82;20905;-43
2021/08/14 07:40:40;;;;;;;3.67;2.45;;;;;;;25.50;37.96;100132.94;1691507;84;20996;-42
2021/08/14 07:43:10;;;;;;;5.95;2.50;;;;;;;25.61;37.98;100140.98;1691763;84;21005;-42
2021/08/14 07:45:36;;;;;;;;;;;;;;;25.73;37.27;100131.87;1717266;83;21052;-42
2021/08/14 07:48:06;;;;;;;2.60;2.20;;;;;;;25.81;37.58;100128.42;1691513;83;21126;-42
2021/08/14 07:50:33;;;;;;;;;;;;;;;25.82;37.28;100133.38;1705615;83;21010;-42
2021/08/14 07:53:00;;;;;;;3.58;2.30;;;;;;;25.89;37.32;100133.94;1704488;84;20220;-42
2021/08/14 07:55:27;;;;;;;3.08;2.40;;;;;;;25.90;37.82;100133.34;1736073;82;21502;-42
2021/08/14 07:57:53;;;;;;;3.10;2.20;;;;;;;26.04;37.37;100134.27;1695466;83;21028;-42
2021/08/14 08:00:22;;;;;;;3.42;2.35;;;;;;;26.17;37.22;100125.30;1680196;84;21138;-42
2021/08/14 08:02:49;;;;;;;2.47;2.12;;;;;;;26.32;36.71;100134.76;1673841;85;21563;-42
2021/08/14 08:05:15;;;;;;;3.42;2.42;;;;;;;26.46;36.00;100137.67;1674144;85;21472;-42
2021/08/14 08:07:44;;;;;;;3.17;2.30;;;;;;;26.57;35.94;100142.27;1673887;85;21091;-42
2021/08/14 08:10:16;;;;;;;3.87;2.27;;;;;;;26.67;34.81;100134.78;1674064;84;21568;-42
2021/08/14 08:12:43;;;;;;;2.37;1.95;;;;;;;26.76;35.00;100134.86;1674338;85;21119;-42
2021/08/14 08:15:11;;;;;;;4.47;2.35;;;;;;;26.82;34.20;100127.47;1683735;84;21062;-42
2021/08/14 08:17:38;;;;;;;4.00;2.15;;;;;;;26.88;33.25;100129.09;1702609;84;20995;-42
2021/08/14 08:20:06;;;;;;;3.52;2.27;;;;;;;26.88;34.20;100124.30;1680377;84;20979;-42
2021/08/14 08:22:32;;;;;;;5.25;2.37;;;;;;;26.99;34.74;100123.92;1693654;84;21062;-42
2021/08/14 08:25:01;;;;;;;3.98;2.25;;;;;;;27.09;34.55;100120.77;1683934;84;21042;-42
2021/08/14 08:27:27;;;;;;;3.52;2.33;;;;;;;27.21;34.17;100112.94;1685330;84;21621;-42
2021/08/14 08:29:53;;;;;;;2.55;2.17;;;;;;;27.30;34.41;100110.84;1694256;84;21598;-42
2021/08/14 08:32:20;;;;;;;2.77;2.20;;;;;;;27.35;33.20;100113.66;1674171;84;21356;-42
2021/08/14 08:34:47;;;;;;;3.15;2.10;;;;;;;27.34;32.61;100110.70;1673773;84;21079;-42
2021/08/14 08:37:15;;;;;;;3.33;2.12;;;;;;;27.30;32.20;100108.67;1673738;85;21120;-43
2021/08/14 08:39:42;;;;;;;2.90;2.10;;;;;;;27.28;33.46;100101.37;1674046;85;21851;-42
2021/08/14 08:42:09;;;;;;;3.42;2.30;;;;;;;27.30;34.10;100110.07;1674235;85;21616;-42
2021/08/14 08:44:35;;;;;;;2.20;2.00;;;;;;;27.34;32.80;100109.31;1685528;84;21123;-42
2021/08/14 08:47:04;;;;;;;3.87;2.15;;;;;;;27.37;33.28;100108.39;1681633;84;21000;-42
2021/08/14 08:49:33;;;;;;;2.17;1.65;;;;;;;27.39;33.05;100103.94;1688195;84;21129;-43
2021/08/14 08:51:59;;;;;;;4.55;2.27;;;;;;;27.39;33.00;100103.16;1686655;84;20972;-43
2021/08/14 08:54:25;;;;;;;3.77;2.40;;;;;;;27.44;33.33;100102.56;1695522;84;21065;-43
2021/08/14 08:56:53;;;;;;;3.12;2.05;;;;;;;27.54;32.38;100101.41;1681031;84;21045;-43
2021/08/14 08:59:20;;;;;;;2.58;2.30;;;;;;;27.62;33.16;100097.10;1659764;85;21563;-42
2021/08/14 09:01:46;;;;;;;4.42;2.12;;;;;;;27.76;32.33;100096.54;1718618;82;21916;-43
2021/08/14 09:04:28;;;;;;;2.95;2.10;;;;;;;27.88;32.21;100097.67;1669902;85;21055;-43
2021/08/14 09:06:58;;;;;;;4.47;1.87;;;;;;;27.99;32.37;100098.78;1666906;85;21606;-42
2021/08/14 09:09:30;;;;;;;3.72;2.08;;;;;;;28.10;32.56;100086.58;1693924;84;21053;-43
2021/08/14 09:12:02;;;;;;;3.37;2.45;;;;;;;28.26;31.36;100093.14;1677346;84;21013;-43
2021/08/14 09:14:31;;;;;;;4.03;2.55;;;;;;;28.32;31.14;100087.13;1666970;85;21145;-42
2021/08/14 09:17:09;;;;;;;4.20;1.98;;;;;;;28.30;31.01;100085.40;1668211;84;21642;-42
2021/08/14 09:19:36;;;;;;;3.00;2.17;;;;;;;28.28;30.18;100083.69;1678836;84;21052;-42
2021/08/14 09:22:13;;;;;;;2.80;2.12;;;;;;;28.22;30.62;100084.16;1666634;86;21594;-42
2021/08/14 09:24:40;;;;;;;2.52;2.02;;;;;;;28.26;30.26;100083.39;1663909;84;21594;-42
2021/08/14 09:27:06;;;;;;;3.87;2.40;;;;;;;28.27;31.35;100082.16;1672841;84;21137;-42
2021/08/14 09:29:36;;;;;;;5.30;1.92;;;;;;;28.27;31.11;100080.11;1682090;84;21104;-42
2021/08/14 09:32:05;;;;;;;3.70;2.17;;;;;;;28.32;31.95;100073.17;1669066;84;21052;-42
2021/08/14 09:34:32;;;;;;;;;;;;;;;28.45;31.61;100070.39;1691997;84;21372;-42
2021/08/14 09:37:08;;;;;;;3.98;2.35;;;;;;;28.65;31.44;100062.95;1692841;84;20166;-42
2021/08/14 09:40:01;;;;;;;4.12;2.25;;;;;;;28.78;30.55;100063.59;1669022;84;21144;-42
2021/08/14 09:42:29;;;;;;;3.20;2.10;;;;;;;29.01;31.16;100055.78;1694531;84;21041;-42
2021/08/14 09:45:16;;;;;;;3.45;2.00;;;;;;;29.27;30.85;100056.97;1686900;84;21012;-42
2021/08/14 09:47:46;;;;;;;2.75;2.08;;;;;;;29.51;30.78;100058.46;1668846;84;21055;-42
2021/08/14 09:50:13;;;;;;;2.50;1.72;;;;;;;29.70;29.62;100052.32;1668798;84;21076;-42
2021/08/14 09:52:41;;;;;;;5.67;2.17;;;;;;;29.88;29.52;100046.47;1666989;86;21785;-42
2021/08/14 09:55:14;;;;;;;2.33;2.00;;;;;;;30.04;29.93;100048.89;1666611;85;20969;-42
2021/08/14 09:57:41;;;;;;;4.53;2.25;;;;;;;30.19;29.28;100046.92;1674464;84;21048;-42
2021/08/14 10:00:09;;;;;;;3.30;2.20;;;;;;;30.29;29.28;100044.84;1670363;84;21069;-42
2021/08/14 10:02:39;;;;;;;2.60;1.85;;;;;;;30.38;28.39;100041.34;1666645;84;21053;-42
2021/08/14 10:05:08;;;;;;;2.72;1.90;;;;;;;30.51;28.37;100050.27;1657670;84;21082;-42
2021/08/14 10:07:34;;;;;;;4.80;2.30;;;;;;;30.63;28.56;100036.65;1675854;84;21033;-42
2021/08/14 10:10:01;;;;;;;3.35;1.87;;;;;;;30.81;28.63;100039.89;1678515;84;21586;-42
2021/08/14 10:12:28;;;;;;;3.98;2.02;;;;;;;30.96;28.28;100041.30;1694278;84;21575;-45
2021/08/14 10:14:55;;;;;;;2.50;1.92;;;;;;;31.08;28.04;100031.22;1676509;84;21060;-42
2021/08/14 10:17:24;;;;;;;2.20;1.62;;;;;;;31.09;27.56;100036.20;1663540;84;21132;-44
2021/08/14 10:19:53;;;;;;;3.62;1.90;;;;;;;31.05;27.79;100032.83;1666888;86;20994;-44
2021/08/14 10:22:23;;;;;;;3.27;1.82;;;;;;;31.02;27.54;100028.20;1672969;84;21056;-45
2021/08/14 10:24:49;;;;;;;3.87;1.95;;;;;;;30.94;26.41;100027.00;1646686;84;21582;-44
2021/08/14 10:27:17;;;;;;;2.35;1.80;;;;;;;30.98;26.53;100026.20;1694962;84;21053;-44
2021/08/14 10:29:52;;;;;;;1.90;1.70;;;;;;;31.02;26.33;100024.00;1668014;84;21171;-44
2021/08/14 10:32:40;;;;;;;4.03;1.87;;;;;;;31.14;27.02;100028.52;1679215;84;21005;-44
2021/08/14 10:35:20;;;;;;;3.87;1.80;;;;;;;31.38;27.02;100022.78;1682675;84;21140;-44
2021/08/14 10:37:48;;;;;;;3.05;1.70;;;;;;;31.66;26.65;100026.05;1667289;84;21562;-45
2021/08/14 10:40:16;;;;;;;2.87;1.98;;;;;;;31.81;26.56;100022.55;1670704;83;21076;-45
2021/08/14 10:42:53;;;;;;;4.08;1.80;;;;;;;31.95;25.86;100024.55;1671886;84;22139;-44
2021/08/14 10:45:32;;;;;;;1.92;1.72;;;;;;;32.13;25.22;100020.72;1667528;83;20989;-44
2021/08/14 10:48:06;;;;;;;2.40;1.85;;;;;;;32.38;25.40;100018.59;1667096;84;20931;-45
2021/08/14 10:50:38;;;;;;;2.52;2.00;;;;;;;32.71;25.94;100019.60;1667057;84;21091;-45
2021/08/14 10:53:16;;;;;;;2.58;2.02;;;;;;;33.06;25.19;100010.98;1667251;84;21061;-45
2021/08/14 10:55:53;;;;;;;2.22;1.80;;;;;;;33.24;24.18;100007.06;1661490;85;21036;-45
2021/08/14 10:58:30;;;;;;;2.27;1.67;;;;;;;33.24;24.34;100010.64;1657796;84;20974;-44
2021/08/14 11:01:09;;;;;;;4.70;1.87;;;;;;;33.31;24.16;100008.02;1654775;85;21156;-45
2021/08/14 11:03:37;;;;;;;2.20;1.50;;;;;;;33.35;23.68;99996.67;1675677;85;21074;-45
2021/08/14 11:06:36;;;;;;;3.60;1.87;;;;;;;33.50;23.38;99995.11;1679791;85;21529;-45
2021/08/14 11:09:24;;;;;;;2.00;1.52;;;;;;;33.68;23.52;99996.14;1656683;85;21468;-45
2021/08/14 11:12:50;;;;;;;3.42;1.80;;;;;;;34.30;22.52;99988.73;1789724;79;22453;-45
2021/08/14 11:15:24;;;;;;;2.00;1.70;;;;;;;34.42;22.24;99994.55;1769436;80;21530;-45
2021/08/14 11:17:54;;;;;;;2.95;1.87;;;;;;;34.43;22.16;99989.02;1759351;79;21054;-44
2021/08/14 11:20:26;;;;;;;2.42;1.75;;;;;;;34.39;22.45;99978.02;1762078;80;21074;-44
2021/08/14 11:22:58;;;;;;;1.98;1.75;;;;;;;34.34;22.35;99977.36;1757308;80;20984;-45
2021/08/14 11:25:37;;;;;;;1.72;1.52;;;;;;;34.23;23.17;99975.91;1769503;80;21008;-45
2021/08/14 11:28:10;;;;;;;2.05;1.70;;;;;;;34.28;23.09;99972.34;1712166;81;21008;-45
2021/08/14 11:30:41;;;;;;;2.47;1.65;;;;;;;34.43;22.87;99974.94;1729498;81;21201;-43